Shinsen Maru — JG5654 — position and weather

sailwx.info

Track history (hours):
 
Tides and Currents Weather Stations Pressure Air Temp Water Temp Dewpoint Dewpoint Depression Visibility Wind Speed Wind Dir Waves Ship Positions

Shinsen Maru

Last reported at 2018-Feb-16 17:11 UTC. Time now 2018-Feb-19 06:07 UTC.
Position N 35°04' E 140°21'.

Length 160 m; draft 6.8 m.

Type: Cargo ship. MMSI: 431100987.

Date/timePositionNaut miles runAvg speedWind from/ knotsBaromVisibWave heightAir tempDewpointWater temp
2018-Feb-16 17:11N 35°04' E 140°21'717.3
2018-Feb-16 16:46N 34°60' E 140°14'518.0
2018-Feb-16 16:30N 34°57' E 140°09'918.0
2018-Feb-16 16:01N 34°52' E 139°60'1019.0
2018-Feb-16 15:29N 34°47' E 139°49'918.4
2018-Feb-16 14:59N 34°43' E 139°40'919.9
2018-Feb-16 14:31N 34°38' E 139°30'1019.6
2018-Feb-16 14:00N 34°35' E 139°18'1020.9
2018-Feb-16 13:31N 34°32' E 139°06'1020.4
2018-Feb-16 13:01N 34°30' E 138°54'1020.1
2018-Feb-16 12:30N 34°30' E 138°42'1019.6
2018-Feb-16 12:00N 34°30' E 138°30'1019.5
2018-Feb-16 11:29N 34°30' E 138°18'1119.4
2018-Feb-16 10:57N 34°30' E 138°05'918.1
2018-Feb-16 10:28N 34°30' E 137°55'817.9
2018-Feb-16 10:00N 34°30' E 137°45'1617.5
2018-Feb-16 09:05N 34°31' E 137°25'118.2
2018-Feb-16 09:00N 34°31' E 137°23'917.9
2018-Feb-16 08:30N 34°31' E 137°12'1414.4
2018-Feb-16 07:33N 34°36' E 136°57'113.6
2018-Feb-16 07:30N 34°36' E 136°56'917.5
2018-Feb-16 07:00N 34°42' E 136°48'918.2
2018-Feb-16 06:30N 34°51' E 136°45'917.6
2018-Feb-16 06:00N 34°59' E 136°49'612.2
2018-Feb-16 05:30N 35°04' E 136°52'0 0.2
2018-Feb-16 04:51N 35°05' E 136°52'0 0.1
2018-Feb-16 04:21N 35°05' E 136°52'0 0.0
2018-Feb-16 04:00N 35°05' E 136°52'0 0.0
2018-Feb-16 03:21N 35°05' E 136°52'0 0.1
2018-Feb-16 03:00N 35°05' E 136°52'0 0.0
2018-Feb-16 02:27N 35°05' E 136°52'0 0.0
2018-Feb-16 01:57N 35°05' E 136°52'0 0.0
2018-Feb-16 01:30N 35°05' E 136°52'0 0.0
2018-Feb-16 00:54N 35°05' E 136°52'0 0.0
2018-Feb-16 00:30N 35°05' E 136°52'0 0.0
2018-Feb-15 23:57N 35°05' E 136°52'0 0.0
2018-Feb-15 23:27N 35°05' E 136°52'0 0.1
2018-Feb-15 23:00N 35°05' E 136°52'5 9.5
2018-Feb-15 22:30N 35°00' E 136°50'815.2
2018-Feb-15 22:00N 34°53' E 136°47'815.8
2018-Feb-15 21:30N 34°45' E 136°49'816.2
2018-Feb-15 21:00N 34°39' E 136°54'815.5
2018-Feb-15 20:30N 34°33' E 137°01'3114.2
2018-Feb-15 18:19N 34°04' E 136°48'516.6
2018-Feb-15 18:00N 34°01' E 136°43'2216.1
2018-Feb-15 16:37N 33°46' E 136°23'6513.3
2018-Feb-15 11:45N 33°48' E 135°05'417.2
2018-Feb-15 11:31N 33°51' E 135°02'816.7
2018-Feb-15 11:00N 33°59' E 134°59'817.1
2018-Feb-15 10:31N 34°08' E 134°58'917.7
2018-Feb-15 10:01N 34°17' E 134°58'917.6
2018-Feb-15 09:31N 34°24' E 135°04'918.3
2018-Feb-15 09:00N 34°30' E 135°13'917.9
2018-Feb-15 08:31N 34°35' E 135°21'3 6.3
2018-Feb-15 07:59N 34°37' E 135°25'0 0.0
2018-Feb-15 07:29N 34°37' E 135°25'0 0.0
2018-Feb-15 06:59N 34°37' E 135°25'0 0.0
2018-Feb-15 06:23N 34°37' E 135°25'0 0.0
2018-Feb-15 05:59N 34°37' E 135°25'0 0.0
2018-Feb-15 05:29N 34°37' E 135°25'0 0.0
2018-Feb-15 04:59N 34°37' E 135°25'0 0.0
2018-Feb-15 04:29N 34°37' E 135°25'0 0.0
2018-Feb-15 03:59N 34°37' E 135°25'0 0.0
2018-Feb-15 03:26N 34°37' E 135°25'0 0.0
2018-Feb-15 02:59N 34°37' E 135°25'0 0.0
2018-Feb-15 02:29N 34°37' E 135°25'0 0.0
2018-Feb-15 01:59N 34°37' E 135°25'1 2.0
2018-Feb-15 01:31N 34°36' E 135°24'917.2
2018-Feb-15 01:00N 34°31' E 135°15'1020.1
2018-Feb-15 00:31N 34°24' E 135°07'1019.2
2018-Feb-15 00:00N 34°17' E 134°59'1019.8
2018-Feb-14 23:30N 34°07' E 134°60'1019.6
2018-Feb-14 23:00N 33°57' E 135°00'918.7
2018-Feb-14 22:30N 33°48' E 135°03'1019.5
2018-Feb-14 22:00N 33°40' E 135°11'15217.4
2018-Feb-14 13:16N 34°13' E 138°09'717.4
2018-Feb-14 12:52N 34°15' E 138°17'617.1
2018-Feb-14 12:30N 34°18' E 138°24'816.7
2018-Feb-14 12:00N 34°21' E 138°34'916.3
2018-Feb-14 11:28N 34°24' E 138°43'816.9
2018-Feb-14 11:00N 34°27' E 138°53'815.9
2018-Feb-14 10:30N 34°32' E 139°00'815.6
2018-Feb-14 10:01N 34°37' E 139°07'815.8
2018-Feb-14 09:30N 34°44' E 139°12'816.0
2018-Feb-14 09:00N 34°51' E 139°17'815.3
2018-Feb-14 08:30N 34°55' E 139°25'815.6
2018-Feb-14 08:01N 34°60' E 139°32'917.1
2018-Feb-14 07:30N 35°05' E 139°41'817.0
2018-Feb-14 07:00N 35°12' E 139°46'612.3
2018-Feb-14 06:30N 35°18' E 139°44'612.5
2018-Feb-14 06:00N 35°24' E 139°43'918.0
2018-Feb-14 05:30N 35°30' E 139°51'815.7
2018-Feb-14 05:00N 35°37' E 139°46'1 1.5
2018-Feb-14 04:27N 35°38' E 139°46'0 0.0
2018-Feb-14 00:51N 35°38' E 139°46'0 0.0
2018-Feb-14 00:30N 35°38' E 139°46'0 0.0
2018-Feb-13 22:12N 35°38' E 139°46'0 0.3
2018-Feb-13 22:00N 35°38' E 139°46'4 9.0
2018-Feb-13 21:30N 35°34' E 139°49'612.8
2018-Feb-13 21:00N 35°28' E 139°51'612.7
2018-Feb-13 20:31N 35°23' E 139°46'612.0
2018-Feb-13 20:01N 35°17' E 139°45'713.1
2018-Feb-13 19:31N 35°11' E 139°47'816.6
2018-Feb-13 19:00N 35°03' E 139°44'815.4
2018-Feb-13 18:29N 34°55' E 139°45'714.6
2018-Feb-13 17:59N 34°51' E 139°53'816.4
2018-Feb-13 17:30N 34°55' E 140°02'917.1
2018-Feb-13 16:57N 34°59' E 140°12'  
2018-Feb-09 16:00N 34°39' E 139°30'13617.0
2018-Feb-09 08:00N 34°56' E 136°46'5 0.5
2018-Feb-08 22:30N 34°60' E 136°49'917.6
2018-Feb-08 22:00N 34°51' E 136°46'917.9
2018-Feb-08 21:30N 34°43' E 136°50'3913.0
2018-Feb-08 18:30N 34°04' E 136°46'8812.6
2018-Feb-08 11:30N 34°05' E 134°59'1020.1
2018-Feb-08 11:00N 34°15' E 134°58'1019.0
2018-Feb-08 10:30N 34°24' E 135°03'14 1.8
2018-Feb-08 02:30N 34°33' E 135°16'816.7
2018-Feb-08 02:01N 34°27' E 135°09'816.8
2018-Feb-08 01:31N 34°20' E 135°03'714.4
2018-Feb-08 01:01N 34°14' E 135°00'816.3
2018-Feb-08 00:30N 34°05' E 135°01'816.3
2018-Feb-08 00:01N 33°57' E 135°01'815.8
2018-Feb-07 23:30N 33°49' E 135°02'816.6
2018-Feb-07 23:00N 33°43' E 135°08'1117.7
2018-Feb-07 22:23N 33°34' E 135°17'718.1
2018-Feb-07 21:58N 33°30' E 135°24'22117.7
2018-Feb-07 09:30N 34°59' E 139°29'918.1
2018-Feb-07 09:00N 35°04' E 139°38'1413.8
2018-Feb-07 08:01N 35°17' E 139°45'2013.3
2018-Feb-07 06:30N 35°37' E 139°46'1 1.3
2018-Feb-07 05:57N 35°38' E 139°46'0 0.0
2018-Feb-07 02:27N 35°38' E 139°46'0 0.0
2018-Feb-07 00:27N 35°38' E 139°46'0 0.0
2018-Feb-06 23:06N 35°38' E 139°46'0 0.0
2018-Feb-06 22:49N 35°38' E 139°46'1 2.4
2018-Feb-06 22:30N 35°37' E 139°46'1312.9
2018-Feb-06 21:30N 35°24' E 139°46'612.5
2018-Feb-06 21:00N 35°18' E 139°45'2214.9
2018-Feb-06 19:30N 34°55' E 139°45'1214.7
2018-Feb-06 18:42N 34°53' E 139°59'315.3
2018-Feb-06 18:30N 34°55' E 140°03'1016.6
2018-Feb-06 17:54N 34°60' E 140°13'  
Track history (hours):
 
Tides and Currents Weather Stations Pressure Air Temp Water Temp Dewpoint Dewpoint Depression Visibility Wind Speed Wind Dir Waves Ship Positions

Shinsen Maru

Last reported at 2018-Feb-16 17:11 UTC. Time now 2018-Feb-19 06:07 UTC.
Position N 35°04' E 140°21'.

Length 160 m; draft 6.8 m.

Type: Cargo ship. MMSI: 431100987.

Date/timePositionNaut miles runAvg speedWind from/ knotsBaromVisibWave heightAir tempDewpointWater temp
2018-Feb-16 17:11N 35°04' E 140°21'717.3
2018-Feb-16 16:46N 34°60' E 140°14'518.0
2018-Feb-16 16:30N 34°57' E 140°09'918.0
2018-Feb-16 16:01N 34°52' E 139°60'1019.0
2018-Feb-16 15:29N 34°47' E 139°49'918.4
2018-Feb-16 14:59N 34°43' E 139°40'919.9
2018-Feb-16 14:31N 34°38' E 139°30'1019.6
2018-Feb-16 14:00N 34°35' E 139°18'1020.9
2018-Feb-16 13:31N 34°32' E 139°06'1020.4
2018-Feb-16 13:01N 34°30' E 138°54'1020.1
2018-Feb-16 12:30N 34°30' E 138°42'1019.6
2018-Feb-16 12:00N 34°30' E 138°30'1019.5
2018-Feb-16 11:29N 34°30' E 138°18'1119.4
2018-Feb-16 10:57N 34°30' E 138°05'918.1
2018-Feb-16 10:28N 34°30' E 137°55'817.9
2018-Feb-16 10:00N 34°30' E 137°45'1617.5
2018-Feb-16 09:05N 34°31' E 137°25'118.2
2018-Feb-16 09:00N 34°31' E 137°23'917.9
2018-Feb-16 08:30N 34°31' E 137°12'1414.4
2018-Feb-16 07:33N 34°36' E 136°57'113.6
2018-Feb-16 07:30N 34°36' E 136°56'917.5
2018-Feb-16 07:00N 34°42' E 136°48'918.2
2018-Feb-16 06:30N 34°51' E 136°45'917.6
2018-Feb-16 06:00N 34°59' E 136°49'612.2
2018-Feb-16 05:30N 35°04' E 136°52'0 0.2
2018-Feb-16 04:51N 35°05' E 136°52'0 0.1
2018-Feb-16 04:21N 35°05' E 136°52'0 0.0
2018-Feb-16 04:00N 35°05' E 136°52'0 0.0
2018-Feb-16 03:21N 35°05' E 136°52'0 0.1
2018-Feb-16 03:00N 35°05' E 136°52'0 0.0
2018-Feb-16 02:27N 35°05' E 136°52'0 0.0
2018-Feb-16 01:57N 35°05' E 136°52'0 0.0
2018-Feb-16 01:30N 35°05' E 136°52'0 0.0
2018-Feb-16 00:54N 35°05' E 136°52'0 0.0
2018-Feb-16 00:30N 35°05' E 136°52'0 0.0
2018-Feb-15 23:57N 35°05' E 136°52'0 0.0
2018-Feb-15 23:27N 35°05' E 136°52'0 0.1
2018-Feb-15 23:00N 35°05' E 136°52'5 9.5
2018-Feb-15 22:30N 35°00' E 136°50'815.2
2018-Feb-15 22:00N 34°53' E 136°47'815.8
2018-Feb-15 21:30N 34°45' E 136°49'816.2
2018-Feb-15 21:00N 34°39' E 136°54'815.5
2018-Feb-15 20:30N 34°33' E 137°01'3114.2
2018-Feb-15 18:19N 34°04' E 136°48'516.6
2018-Feb-15 18:00N 34°01' E 136°43'2216.1
2018-Feb-15 16:37N 33°46' E 136°23'6513.3
2018-Feb-15 11:45N 33°48' E 135°05'417.2
2018-Feb-15 11:31N 33°51' E 135°02'816.7
2018-Feb-15 11:00N 33°59' E 134°59'817.1
2018-Feb-15 10:31N 34°08' E 134°58'917.7
2018-Feb-15 10:01N 34°17' E 134°58'917.6
2018-Feb-15 09:31N 34°24' E 135°04'918.3
2018-Feb-15 09:00N 34°30' E 135°13'917.9
2018-Feb-15 08:31N 34°35' E 135°21'3 6.3
2018-Feb-15 07:59N 34°37' E 135°25'0 0.0
2018-Feb-15 07:29N 34°37' E 135°25'0 0.0
2018-Feb-15 06:59N 34°37' E 135°25'0 0.0
2018-Feb-15 06:23N 34°37' E 135°25'0 0.0
2018-Feb-15 05:59N 34°37' E 135°25'0 0.0
2018-Feb-15 05:29N 34°37' E 135°25'0 0.0
2018-Feb-15 04:59N 34°37' E 135°25'0 0.0
2018-Feb-15 04:29N 34°37' E 135°25'0 0.0
2018-Feb-15 03:59N 34°37' E 135°25'0 0.0
2018-Feb-15 03:26N 34°37' E 135°25'0 0.0
2018-Feb-15 02:59N 34°37' E 135°25'0 0.0
2018-Feb-15 02:29N 34°37' E 135°25'0 0.0
2018-Feb-15 01:59N 34°37' E 135°25'1 2.0
2018-Feb-15 01:31N 34°36' E 135°24'917.2
2018-Feb-15 01:00N 34°31' E 135°15'1020.1
2018-Feb-15 00:31N 34°24' E 135°07'1019.2
2018-Feb-15 00:00N 34°17' E 134°59'1019.8
2018-Feb-14 23:30N 34°07' E 134°60'1019.6
2018-Feb-14 23:00N 33°57' E 135°00'918.7
2018-Feb-14 22:30N 33°48' E 135°03'1019.5
2018-Feb-14 22:00N 33°40' E 135°11'15217.4
2018-Feb-14 13:16N 34°13' E 138°09'717.4
2018-Feb-14 12:52N 34°15' E 138°17'617.1
2018-Feb-14 12:30N 34°18' E 138°24'816.7
2018-Feb-14 12:00N 34°21' E 138°34'916.3
2018-Feb-14 11:28N 34°24' E 138°43'816.9
2018-Feb-14 11:00N 34°27' E 138°53'815.9
2018-Feb-14 10:30N 34°32' E 139°00'815.6
2018-Feb-14 10:01N 34°37' E 139°07'815.8
2018-Feb-14 09:30N 34°44' E 139°12'816.0
2018-Feb-14 09:00N 34°51' E 139°17'815.3
2018-Feb-14 08:30N 34°55' E 139°25'815.6
2018-Feb-14 08:01N 34°60' E 139°32'917.1
2018-Feb-14 07:30N 35°05' E 139°41'817.0
2018-Feb-14 07:00N 35°12' E 139°46'612.3
2018-Feb-14 06:30N 35°18' E 139°44'612.5
2018-Feb-14 06:00N 35°24' E 139°43'918.0
2018-Feb-14 05:30N 35°30' E 139°51'815.7
2018-Feb-14 05:00N 35°37' E 139°46'1 1.5
2018-Feb-14 04:27N 35°38' E 139°46'0 0.0
2018-Feb-14 00:51N 35°38' E 139°46'0 0.0
2018-Feb-14 00:30N 35°38' E 139°46'0 0.0
2018-Feb-13 22:12N 35°38' E 139°46'0 0.3
2018-Feb-13 22:00N 35°38' E 139°46'4 9.0
2018-Feb-13 21:30N 35°34' E 139°49'612.8
2018-Feb-13 21:00N 35°28' E 139°51'612.7
2018-Feb-13 20:31N 35°23' E 139°46'612.0
2018-Feb-13 20:01N 35°17' E 139°45'713.1
2018-Feb-13 19:31N 35°11' E 139°47'816.6
2018-Feb-13 19:00N 35°03' E 139°44'815.4
2018-Feb-13 18:29N 34°55' E 139°45'714.6
2018-Feb-13 17:59N 34°51' E 139°53'816.4
2018-Feb-13 17:30N 34°55' E 140°02'917.1
2018-Feb-13 16:57N 34°59' E 140°12'  
2018-Feb-09 16:00N 34°39' E 139°30'13617.0
2018-Feb-09 08:00N 34°56' E 136°46'5 0.5
2018-Feb-08 22:30N 34°60' E 136°49'917.6
2018-Feb-08 22:00N 34°51' E 136°46'917.9
2018-Feb-08 21:30N 34°43' E 136°50'3913.0
2018-Feb-08 18:30N 34°04' E 136°46'8812.6
2018-Feb-08 11:30N 34°05' E 134°59'1020.1
2018-Feb-08 11:00N 34°15' E 134°58'1019.0
2018-Feb-08 10:30N 34°24' E 135°03'14 1.8
2018-Feb-08 02:30N 34°33' E 135°16'816.7
2018-Feb-08 02:01N 34°27' E 135°09'816.8
2018-Feb-08 01:31N 34°20' E 135°03'714.4
2018-Feb-08 01:01N 34°14' E 135°00'816.3
2018-Feb-08 00:30N 34°05' E 135°01'816.3
2018-Feb-08 00:01N 33°57' E 135°01'815.8
2018-Feb-07 23:30N 33°49' E 135°02'816.6
2018-Feb-07 23:00N 33°43' E 135°08'1117.7
2018-Feb-07 22:23N 33°34' E 135°17'718.1
2018-Feb-07 21:58N 33°30' E 135°24'22117.7
2018-Feb-07 09:30N 34°59' E 139°29'918.1
2018-Feb-07 09:00N 35°04' E 139°38'1413.8
2018-Feb-07 08:01N 35°17' E 139°45'2013.3
2018-Feb-07 06:30N 35°37' E 139°46'1 1.3
2018-Feb-07 05:57N 35°38' E 139°46'0 0.0
2018-Feb-07 02:27N 35°38' E 139°46'0 0.0
2018-Feb-07 00:27N 35°38' E 139°46'0 0.0
2018-Feb-06 23:06N 35°38' E 139°46'0 0.0
2018-Feb-06 22:49N 35°38' E 139°46'1 2.4
2018-Feb-06 22:30N 35°37' E 139°46'1312.9
2018-Feb-06 21:30N 35°24' E 139°46'612.5
2018-Feb-06 21:00N 35°18' E 139°45'2214.9
2018-Feb-06 19:30N 34°55' E 139°45'1214.7
2018-Feb-06 18:42N 34°53' E 139°59'315.3
2018-Feb-06 18:30N 34°55' E 140°03'1016.6
2018-Feb-06 17:54N 34°60' E 140°13'  

Dump ship's entire track history